createdAt,value
2022-11-01T00:06:11.453Z,12.41
2022-11-01T00:16:33.086Z,12.40
2022-11-01T00:26:54.419Z,12.38
2022-11-01T00:37:15.749Z,12.36
2022-11-01T00:47:37.116Z,12.33
2022-11-01T00:57:58.577Z,12.34
2022-11-01T01:08:20.917Z,12.41
2022-11-01T01:18:42.249Z,12.46
2022-11-01T01:29:03.686Z,12.48
2022-11-01T01:39:25.077Z,12.50
2022-11-01T01:49:47.099Z,12.48
2022-11-01T02:00:08.990Z,12.52
2022-11-01T02:10:31.007Z,12.51
2022-11-01T02:21:03.570Z,12.52
2022-11-01T02:31:35.614Z,12.64
2022-11-01T02:42:05.487Z,12.68
2022-11-01T02:52:28.956Z,12.76
2022-11-01T03:03:03.154Z,12.81
2022-11-01T03:13:47.886Z,12.89
2022-11-01T03:24:16.711Z,12.96
2022-11-01T03:34:39.014Z,13.04
2022-11-01T03:45:04.225Z,13.07
2022-11-01T03:55:25.542Z,13.05
2022-11-01T04:05:46.877Z,13.14
2022-11-01T04:16:28.066Z,13.18
2022-11-01T04:26:49.412Z,13.24
2022-11-01T04:37:11.291Z,13.30
2022-11-01T04:47:32.742Z,13.34
2022-11-01T04:57:54.324Z,13.39
2022-11-01T05:08:15.795Z,13.46
2022-11-01T05:18:40.763Z,13.48
2022-11-01T05:29:08.819Z,13.46
2022-11-01T05:39:34.783Z,13.53
2022-11-01T05:49:56.103Z,13.62
2022-11-01T06:00:17.600Z,13.74
2022-11-01T06:10:38.938Z,13.76
2022-11-01T06:21:00.370Z,13.82
2022-11-01T06:31:22.113Z,13.84
2022-11-01T06:41:43.441Z,14.00
2022-11-01T06:52:05.104Z,14.13
2022-11-01T07:02:29.713Z,14.22
2022-11-01T07:12:51.489Z,14.36
2022-11-01T07:23:14.566Z,14.44
2022-11-01T07:33:36.211Z,14.54
2022-11-01T07:43:57.607Z,14.69
2022-11-01T07:54:18.945Z,14.82
2022-11-01T08:04:40.361Z,14.96
2022-11-01T08:15:04.659Z,14.73
2022-11-01T08:25:26.391Z,14.74
2022-11-01T08:35:50.732Z,14.42
2022-11-01T08:46:12.215Z,14.27
2022-11-01T08:56:33.675Z,14.28
2022-11-01T09:06:55.556Z,14.48
2022-11-01T09:17:16.898Z,14.56
2022-11-01T09:27:38.800Z,14.66
2022-11-01T09:38:01.245Z,14.71
2022-11-01T09:48:24.070Z,14.72
2022-11-01T09:59:04.335Z,14.87
2022-11-01T10:09:45.803Z,14.85
2022-11-01T10:20:09.068Z,14.83
2022-11-01T10:30:34.655Z,14.86
2022-11-01T10:41:00.998Z,14.90
2022-11-01T10:51:27.826Z,14.98
2022-11-01T11:07:50.633Z,15.12
2022-11-01T11:18:25.715Z,15.08
2022-11-01T11:28:51.669Z,15.13
2022-11-01T11:39:37.683Z,15.13
2022-11-01T11:50:00.636Z,15.20
2022-11-01T12:00:27.354Z,15.25
2022-11-01T12:10:57.455Z,15.41
2022-11-01T12:21:33.674Z,15.31
2022-11-01T12:32:00.674Z,15.26
2022-11-01T12:42:32.948Z,15.26
2022-11-01T12:53:05.210Z,15.35
2022-11-01T13:03:42.180Z,15.43
2022-11-01T13:14:41.367Z,15.56
2022-11-01T13:25:19.322Z,15.51
2022-11-01T13:35:59.022Z,15.45
2022-11-01T13:46:38.593Z,15.48
2022-11-01T13:57:12.533Z,15.41
2022-11-01T14:07:43.284Z,15.52
2022-11-01T14:18:05.157Z,15.47
2022-11-01T14:28:30.807Z,15.45
2022-11-01T14:39:09.237Z,15.39
2022-11-01T14:49:42.251Z,15.20
2022-11-01T15:00:23.064Z,15.10
2022-11-01T15:10:44.904Z,14.97
2022-11-01T15:21:06.911Z,14.87
2022-11-01T15:31:29.153Z,14.71
2022-11-01T15:41:51.540Z,14.58
2022-11-01T15:52:35.028Z,14.42
2022-11-01T16:03:07.582Z,14.30
2022-11-01T16:13:31.991Z,14.16
2022-11-01T16:24:09.550Z,14.02
2022-11-01T16:34:34.492Z,13.94
2022-11-01T16:44:56.517Z,13.84
2022-11-01T16:55:18.397Z,13.65
2022-11-01T17:05:41.178Z,13.56
2022-11-01T17:16:03.832Z,13.46
2022-11-01T17:26:26.502Z,13.38
2022-11-01T17:36:49.742Z,13.36
2022-11-01T17:47:14.590Z,13.24
2022-11-01T17:57:36.082Z,13.20
2022-11-01T18:07:58.688Z,13.17
2022-11-01T18:19:01.649Z,13.12
2022-11-01T18:29:23.919Z,13.19
2022-11-01T18:40:01.117Z,13.23
2022-11-01T18:50:26.067Z,13.24
2022-11-01T19:01:08.529Z,13.25
2022-11-01T19:11:31.538Z,13.17
2022-11-01T19:21:59.024Z,13.15
2022-11-01T19:32:24.488Z,13.28
2022-11-01T19:42:46.370Z,13.14
2022-11-01T19:53:32.391Z,13.13
2022-11-01T20:03:56.766Z,13.05
2022-11-01T20:14:18.323Z,12.95
2022-11-01T20:24:39.783Z,12.87
2022-11-01T20:35:01.835Z,12.81
2022-11-01T20:45:23.371Z,12.74
2022-11-01T20:55:44.957Z,12.71
2022-11-01T21:06:11.622Z,12.58
2022-11-01T21:16:33.029Z,12.58
2022-11-01T21:27:14.759Z,12.53
2022-11-01T21:37:36.167Z,12.46
2022-11-01T21:48:02.862Z,12.41
2022-11-01T21:58:24.698Z,12.42
2022-11-01T22:08:46.134Z,12.33
2022-11-01T22:19:07.627Z,12.25
2022-11-01T22:29:29.058Z,12.24
2022-11-01T22:39:53.047Z,12.21
2022-11-01T22:50:26.371Z,12.15
2022-11-01T23:00:49.742Z,12.11
2022-11-01T23:11:44.702Z,12.05
2022-11-01T23:22:18.865Z,12.00
2022-11-01T23:32:40.194Z,11.98
2022-11-01T23:43:02.042Z,11.93
2022-11-01T23:53:33.750Z,11.90
